sensor_id;sensor_type;location;lat;lon;timestamp;P1;durP1;ratioP1;P2;durP2;ratioP2
5379;SDS011;2713;42.680;23.310;2022-08-21T00:00:21;19.77;;;12.87;;
5379;SDS011;2713;42.680;23.310;2022-08-21T00:02:51;20.80;;;14.20;;
5379;SDS011;2713;42.680;23.310;2022-08-21T00:05:19;23.67;;;15.10;;
5379;SDS011;2713;42.680;23.310;2022-08-21T00:07:46;19.80;;;13.10;;
5379;SDS011;2713;42.680;23.310;2022-08-21T00:10:13;21.90;;;13.50;;
5379;SDS011;2713;42.680;23.310;2022-08-21T00:12:41;18.97;;;13.17;;
5379;SDS011;2713;42.680;23.310;2022-08-21T00:15:10;20.63;;;12.53;;
5379;SDS011;2713;42.680;23.310;2022-08-21T00:17:39;21.20;;;13.40;;
5379;SDS011;2713;42.680;23.310;2022-08-21T00:20:06;20.93;;;13.50;;
5379;SDS011;2713;42.680;23.310;2022-08-21T00:22:35;19.97;;;13.67;;
5379;SDS011;2713;42.680;23.310;2022-08-21T00:25:02;22.03;;;13.60;;
5379;SDS011;2713;42.680;23.310;2022-08-21T00:27:31;18.57;;;13.33;;
5379;SDS011;2713;42.680;23.310;2022-08-21T00:29:58;19.10;;;12.03;;
5379;SDS011;2713;42.680;23.310;2022-08-21T00:32:27;17.27;;;11.90;;
5379;SDS011;2713;42.680;23.310;2022-08-21T00:34:54;18.37;;;11.87;;
5379;SDS011;2713;42.680;23.310;2022-08-21T00:37:21;16.33;;;11.03;;
5379;SDS011;2713;42.680;23.310;2022-08-21T00:39:48;15.20;;;9.87;;
5379;SDS011;2713;42.680;23.310;2022-08-21T00:42:16;13.30;;;9.30;;
5379;SDS011;2713;42.680;23.310;2022-08-21T00:44:45;15.70;;;10.50;;
5379;SDS011;2713;42.680;23.310;2022-08-21T00:47:14;15.30;;;10.57;;
5379;SDS011;2713;42.680;23.310;2022-08-21T00:49:42;16.20;;;9.30;;
5379;SDS011;2713;42.680;23.310;2022-08-21T00:52:10;15.40;;;10.70;;
5379;SDS011;2713;42.680;23.310;2022-08-21T00:54:39;16.27;;;10.90;;
5379;SDS011;2713;42.680;23.310;2022-08-21T00:57:10;13.77;;;10.37;;
5379;SDS011;2713;42.680;23.310;2022-08-21T00:59:43;14.47;;;10.37;;
5379;SDS011;2713;42.680;23.310;2022-08-21T01:02:15;14.37;;;9.50;;
5379;SDS011;2713;42.680;23.310;2022-08-21T01:04:44;13.33;;;9.80;;
5379;SDS011;2713;42.680;23.310;2022-08-21T01:07:11;15.33;;;8.67;;
5379;SDS011;2713;42.680;23.310;2022-08-21T01:09:38;13.17;;;10.30;;
5379;SDS011;2713;42.680;23.310;2022-08-21T01:12:06;12.93;;;8.53;;
5379;SDS011;2713;42.680;23.310;2022-08-21T01:14:34;14.77;;;9.70;;
5379;SDS011;2713;42.680;23.310;2022-08-21T01:17:02;15.23;;;9.67;;
5379;SDS011;2713;42.680;23.310;2022-08-21T01:19:30;10.97;;;8.23;;
5379;SDS011;2713;42.680;23.310;2022-08-21T01:22:00;10.00;;;8.10;;
5379;SDS011;2713;42.680;23.310;2022-08-21T01:24:27;15.10;;;8.70;;
5379;SDS011;2713;42.680;23.310;2022-08-21T01:26:54;11.20;;;8.33;;
5379;SDS011;2713;42.680;23.310;2022-08-21T01:29:25;12.33;;;8.10;;
5379;SDS011;2713;42.680;23.310;2022-08-21T01:34:47;11.00;;;8.00;;
5379;SDS011;2713;42.680;23.310;2022-08-21T01:37:19;11.00;;;7.80;;
5379;SDS011;2713;42.680;23.310;2022-08-21T01:39:47;12.40;;;8.23;;
5379;SDS011;2713;42.680;23.310;2022-08-21T01:42:14;10.87;;;7.53;;
5379;SDS011;2713;42.680;23.310;2022-08-21T01:44:41;10.63;;;8.10;;
5379;SDS011;2713;42.680;23.310;2022-08-21T01:47:09;10.47;;;7.40;;
5379;SDS011;2713;42.680;23.310;2022-08-21T01:49:39;9.67;;;7.77;;
5379;SDS011;2713;42.680;23.310;2022-08-21T01:52:06;8.80;;;7.40;;
5379;SDS011;2713;42.680;23.310;2022-08-21T01:54:35;13.00;;;8.80;;
5379;SDS011;2713;42.680;23.310;2022-08-21T01:57:03;11.67;;;8.27;;
5379;SDS011;2713;42.680;23.310;2022-08-21T01:59:31;15.30;;;8.40;;
5379;SDS011;2713;42.680;23.310;2022-08-21T02:01:58;8.63;;;7.40;;
5379;SDS011;2713;42.680;23.310;2022-08-21T02:04:26;9.80;;;7.40;;
5379;SDS011;2713;42.680;23.310;2022-08-21T02:06:53;11.23;;;7.73;;
5379;SDS011;2713;42.680;23.310;2022-08-21T02:09:20;11.90;;;8.13;;
5379;SDS011;2713;42.680;23.310;2022-08-21T02:11:49;13.37;;;8.40;;
5379;SDS011;2713;42.680;23.310;2022-08-21T02:14:16;10.63;;;9.13;;
5379;SDS011;2713;42.680;23.310;2022-08-21T02:16:44;13.20;;;9.30;;
5379;SDS011;2713;42.680;23.310;2022-08-21T02:19:11;12.10;;;8.80;;
5379;SDS011;2713;42.680;23.310;2022-08-21T02:21:40;13.97;;;9.57;;
5379;SDS011;2713;42.680;23.310;2022-08-21T02:24:07;14.60;;;9.37;;
5379;SDS011;2713;42.680;23.310;2022-08-21T02:26:34;13.93;;;10.33;;
5379;SDS011;2713;42.680;23.310;2022-08-21T02:29:03;17.97;;;11.67;;
5379;SDS011;2713;42.680;23.310;2022-08-21T02:31:32;15.20;;;11.07;;
5379;SDS011;2713;42.680;23.310;2022-08-21T02:33:59;18.70;;;10.60;;
5379;SDS011;2713;42.680;23.310;2022-08-21T02:36:26;15.57;;;10.10;;
5379;SDS011;2713;42.680;23.310;2022-08-21T02:38:53;22.20;;;13.53;;
5379;SDS011;2713;42.680;23.310;2022-08-21T02:41:21;15.93;;;11.50;;
5379;SDS011;2713;42.680;23.310;2022-08-21T02:43:48;24.73;;;15.70;;
5379;SDS011;2713;42.680;23.310;2022-08-21T02:46:18;27.30;;;16.37;;
5379;SDS011;2713;42.680;23.310;2022-08-21T02:48:46;25.70;;;16.50;;
5379;SDS011;2713;42.680;23.310;2022-08-21T02:51:14;29.07;;;17.63;;
5379;SDS011;2713;42.680;23.310;2022-08-21T02:53:45;28.03;;;17.33;;
5379;SDS011;2713;42.680;23.310;2022-08-21T02:56:15;26.70;;;15.83;;
5379;SDS011;2713;42.680;23.310;2022-08-21T02:58:45;30.57;;;15.83;;
5379;SDS011;2713;42.680;23.310;2022-08-21T03:01:14;26.00;;;16.83;;
5379;SDS011;2713;42.680;23.310;2022-08-21T03:03:43;22.70;;;14.60;;
5379;SDS011;2713;42.680;23.310;2022-08-21T03:06:12;22.50;;;14.37;;
5379;SDS011;2713;42.680;23.310;2022-08-21T03:08:41;19.50;;;14.03;;
5379;SDS011;2713;42.680;23.310;2022-08-21T03:11:10;21.80;;;13.23;;
5379;SDS011;2713;42.680;23.310;2022-08-21T03:13:37;17.77;;;12.70;;
5379;SDS011;2713;42.680;23.310;2022-08-21T03:16:05;23.30;;;13.43;;
5379;SDS011;2713;42.680;23.310;2022-08-21T03:18:32;21.03;;;12.33;;
5379;SDS011;2713;42.680;23.310;2022-08-21T03:21:02;31.37;;;14.47;;
5379;SDS011;2713;42.680;23.310;2022-08-21T03:23:29;21.47;;;14.13;;
5379;SDS011;2713;42.680;23.310;2022-08-21T03:25:56;23.30;;;14.80;;
5379;SDS011;2713;42.680;23.310;2022-08-21T03:28:23;22.07;;;13.47;;
5379;SDS011;2713;42.680;23.310;2022-08-21T03:30:51;21.60;;;14.20;;
5379;SDS011;2713;42.680;23.310;2022-08-21T03:33:18;25.47;;;15.37;;
5379;SDS011;2713;42.680;23.310;2022-08-21T03:35:47;23.20;;;14.17;;
5379;SDS011;2713;42.680;23.310;2022-08-21T03:38:20;23.90;;;14.20;;
5379;SDS011;2713;42.680;23.310;2022-08-21T03:40:47;21.70;;;13.30;;
5379;SDS011;2713;42.680;23.310;2022-08-21T03:43:14;25.03;;;14.60;;
5379;SDS011;2713;42.680;23.310;2022-08-21T03:45:41;24.63;;;14.33;;
5379;SDS011;2713;42.680;23.310;2022-08-21T03:48:09;21.37;;;14.53;;
5379;SDS011;2713;42.680;23.310;2022-08-21T03:50:37;25.60;;;15.30;;
5379;SDS011;2713;42.680;23.310;2022-08-21T03:53:05;26.23;;;15.47;;
5379;SDS011;2713;42.680;23.310;2022-08-21T03:55:33;25.37;;;15.90;;
5379;SDS011;2713;42.680;23.310;2022-08-21T03:58:00;22.23;;;13.77;;
5379;SDS011;2713;42.680;23.310;2022-08-21T04:00:27;23.00;;;14.73;;
5379;SDS011;2713;42.680;23.310;2022-08-21T04:02:54;23.13;;;13.77;;
5379;SDS011;2713;42.680;23.310;2022-08-21T04:05:21;24.37;;;14.17;;
5379;SDS011;2713;42.680;23.310;2022-08-21T04:07:56;16.50;;;11.93;;
5379;SDS011;2713;42.680;23.310;2022-08-21T04:10:24;25.60;;;13.37;;
5379;SDS011;2713;42.680;23.310;2022-08-21T04:12:54;22.07;;;11.90;;
5379;SDS011;2713;42.680;23.310;2022-08-21T04:15:21;21.67;;;13.47;;
5379;SDS011;2713;42.680;23.310;2022-08-21T04:17:50;22.20;;;11.80;;
5379;SDS011;2713;42.680;23.310;2022-08-21T04:20:17;17.37;;;11.30;;
5379;SDS011;2713;42.680;23.310;2022-08-21T04:22:45;16.57;;;11.20;;
5379;SDS011;2713;42.680;23.310;2022-08-21T04:25:12;20.43;;;11.10;;
5379;SDS011;2713;42.680;23.310;2022-08-21T04:27:40;14.60;;;11.37;;
5379;SDS011;2713;42.680;23.310;2022-08-21T04:30:09;18.13;;;11.00;;
5379;SDS011;2713;42.680;23.310;2022-08-21T04:32:38;12.20;;;10.07;;
5379;SDS011;2713;42.680;23.310;2022-08-21T04:35:09;18.50;;;10.60;;
5379;SDS011;2713;42.680;23.310;2022-08-21T04:37:37;13.20;;;10.23;;
5379;SDS011;2713;42.680;23.310;2022-08-21T04:40:04;16.17;;;9.47;;
5379;SDS011;2713;42.680;23.310;2022-08-21T04:42:40;15.57;;;10.30;;
5379;SDS011;2713;42.680;23.310;2022-08-21T04:45:13;16.60;;;10.10;;
5379;SDS011;2713;42.680;23.310;2022-08-21T04:47:42;11.00;;;9.43;;
5379;SDS011;2713;42.680;23.310;2022-08-21T04:50:09;14.00;;;8.53;;
5379;SDS011;2713;42.680;23.310;2022-08-21T04:52:51;11.60;;;8.00;;
5379;SDS011;2713;42.680;23.310;2022-08-21T04:55:19;12.70;;;9.40;;
5379;SDS011;2713;42.680;23.310;2022-08-21T04:57:47;11.10;;;7.30;;
5379;SDS011;2713;42.680;23.310;2022-08-21T05:00:20;11.70;;;8.30;;
5379;SDS011;2713;42.680;23.310;2022-08-21T05:02:49;11.57;;;7.93;;
5379;SDS011;2713;42.680;23.310;2022-08-21T05:05:19;12.10;;;8.10;;
5379;SDS011;2713;42.680;23.310;2022-08-21T05:07:46;9.00;;;7.70;;
5379;SDS011;2713;42.680;23.310;2022-08-21T05:10:13;12.70;;;8.60;;
5379;SDS011;2713;42.680;23.310;2022-08-21T05:12:42;11.90;;;10.63;;
5379;SDS011;2713;42.680;23.310;2022-08-21T05:15:10;12.20;;;8.70;;
5379;SDS011;2713;42.680;23.310;2022-08-21T05:17:40;13.10;;;8.80;;
5379;SDS011;2713;42.680;23.310;2022-08-21T05:20:08;36.07;;;26.83;;
5379;SDS011;2713;42.680;23.310;2022-08-21T05:22:35;14.23;;;9.50;;
5379;SDS011;2713;42.680;23.310;2022-08-21T05:25:03;10.27;;;8.07;;
5379;SDS011;2713;42.680;23.310;2022-08-21T05:27:31;12.30;;;7.37;;
5379;SDS011;2713;42.680;23.310;2022-08-21T05:29:58;9.97;;;6.80;;
5379;SDS011;2713;42.680;23.310;2022-08-21T05:32:25;11.10;;;7.87;;
5379;SDS011;2713;42.680;23.310;2022-08-21T05:34:54;10.97;;;7.60;;
5379;SDS011;2713;42.680;23.310;2022-08-21T05:37:21;10.23;;;7.20;;
5379;SDS011;2713;42.680;23.310;2022-08-21T05:39:48;11.00;;;8.17;;
5379;SDS011;2713;42.680;23.310;2022-08-21T05:42:15;11.33;;;7.60;;
5379;SDS011;2713;42.680;23.310;2022-08-21T05:44:42;7.93;;;7.13;;
5379;SDS011;2713;42.680;23.310;2022-08-21T05:47:10;10.93;;;6.90;;
5379;SDS011;2713;42.680;23.310;2022-08-21T05:49:37;10.43;;;7.20;;
5379;SDS011;2713;42.680;23.310;2022-08-21T05:52:05;10.43;;;8.50;;
5379;SDS011;2713;42.680;23.310;2022-08-21T05:54:32;9.17;;;7.13;;
5379;SDS011;2713;42.680;23.310;2022-08-21T05:56:59;10.87;;;7.07;;
5379;SDS011;2713;42.680;23.310;2022-08-21T05:59:26;10.43;;;6.60;;
5379;SDS011;2713;42.680;23.310;2022-08-21T06:01:54;8.63;;;7.03;;
5379;SDS011;2713;42.680;23.310;2022-08-21T06:04:21;10.93;;;6.83;;
5379;SDS011;2713;42.680;23.310;2022-08-21T06:06:47;8.53;;;6.77;;
5379;SDS011;2713;42.680;23.310;2022-08-21T06:09:16;10.97;;;7.30;;
5379;SDS011;2713;42.680;23.310;2022-08-21T06:11:43;10.40;;;8.00;;
5379;SDS011;2713;42.680;23.310;2022-08-21T06:14:09;11.20;;;7.23;;
5379;SDS011;2713;42.680;23.310;2022-08-21T06:16:40;9.33;;;7.40;;
5379;SDS011;2713;42.680;23.310;2022-08-21T06:19:07;12.10;;;8.10;;
5379;SDS011;2713;42.680;23.310;2022-08-21T06:21:34;11.57;;;8.93;;
5379;SDS011;2713;42.680;23.310;2022-08-21T06:24:01;11.67;;;9.67;;
5379;SDS011;2713;42.680;23.310;2022-08-21T06:26:29;13.80;;;9.93;;
5379;SDS011;2713;42.680;23.310;2022-08-21T06:28:56;13.53;;;9.03;;
5379;SDS011;2713;42.680;23.310;2022-08-21T06:31:24;11.17;;;8.97;;
5379;SDS011;2713;42.680;23.310;2022-08-21T06:33:52;11.70;;;9.13;;
5379;SDS011;2713;42.680;23.310;2022-08-21T06:36:19;14.90;;;9.90;;
5379;SDS011;2713;42.680;23.310;2022-08-21T06:38:47;11.60;;;10.10;;
5379;SDS011;2713;42.680;23.310;2022-08-21T06:41:14;13.23;;;9.70;;
5379;SDS011;2713;42.680;23.310;2022-08-21T06:43:42;12.57;;;9.90;;
5379;SDS011;2713;42.680;23.310;2022-08-21T06:46:09;15.30;;;11.10;;
5379;SDS011;2713;42.680;23.310;2022-08-21T06:48:36;14.13;;;10.03;;
5379;SDS011;2713;42.680;23.310;2022-08-21T06:51:03;16.53;;;12.63;;
5379;SDS011;2713;42.680;23.310;2022-08-21T06:53:31;16.90;;;11.03;;
5379;SDS011;2713;42.680;23.310;2022-08-21T06:55:57;12.30;;;10.30;;
5379;SDS011;2713;42.680;23.310;2022-08-21T06:58:24;14.63;;;9.50;;
5379;SDS011;2713;42.680;23.310;2022-08-21T07:00:53;13.23;;;9.90;;
5379;SDS011;2713;42.680;23.310;2022-08-21T07:03:21;13.87;;;9.30;;
5379;SDS011;2713;42.680;23.310;2022-08-21T07:05:49;13.40;;;10.50;;
5379;SDS011;2713;42.680;23.310;2022-08-21T07:08:17;11.87;;;9.93;;
5379;SDS011;2713;42.680;23.310;2022-08-21T07:10:44;13.57;;;10.40;;
5379;SDS011;2713;42.680;23.310;2022-08-21T07:13:11;18.97;;;11.80;;
5379;SDS011;2713;42.680;23.310;2022-08-21T07:15:38;14.13;;;10.70;;
5379;SDS011;2713;42.680;23.310;2022-08-21T07:18:07;12.53;;;10.20;;
5379;SDS011;2713;42.680;23.310;2022-08-21T07:20:35;16.03;;;9.73;;
5379;SDS011;2713;42.680;23.310;2022-08-21T07:23:03;16.27;;;10.20;;
5379;SDS011;2713;42.680;23.310;2022-08-21T07:25:32;19.20;;;10.87;;
5379;SDS011;2713;42.680;23.310;2022-08-21T07:27:59;12.53;;;10.23;;
5379;SDS011;2713;42.680;23.310;2022-08-21T07:30:26;14.77;;;9.47;;
5379;SDS011;2713;42.680;23.310;2022-08-21T07:32:53;11.00;;;9.73;;
5379;SDS011;2713;42.680;23.310;2022-08-21T07:35:22;16.20;;;10.87;;
5379;SDS011;2713;42.680;23.310;2022-08-21T07:37:49;11.90;;;8.60;;
5379;SDS011;2713;42.680;23.310;2022-08-21T07:40:16;13.50;;;9.50;;
5379;SDS011;2713;42.680;23.310;2022-08-21T07:42:44;16.50;;;9.40;;
5379;SDS011;2713;42.680;23.310;2022-08-21T07:45:17;10.00;;;8.93;;
5379;SDS011;2713;42.680;23.310;2022-08-21T07:47:44;18.80;;;10.53;;
5379;SDS011;2713;42.680;23.310;2022-08-21T07:50:12;12.50;;;9.70;;
5379;SDS011;2713;42.680;23.310;2022-08-21T07:52:41;10.67;;;9.53;;
5379;SDS011;2713;42.680;23.310;2022-08-21T07:55:09;16.40;;;10.67;;
5379;SDS011;2713;42.680;23.310;2022-08-21T07:57:37;11.97;;;9.20;;
5379;SDS011;2713;42.680;23.310;2022-08-21T08:00:05;16.43;;;10.90;;
5379;SDS011;2713;42.680;23.310;2022-08-21T08:02:40;11.70;;;9.20;;
5379;SDS011;2713;42.680;23.310;2022-08-21T08:05:10;12.17;;;9.83;;
5379;SDS011;2713;42.680;23.310;2022-08-21T08:07:37;11.47;;;9.13;;
5379;SDS011;2713;42.680;23.310;2022-08-21T08:10:06;14.40;;;10.70;;
5379;SDS011;2713;42.680;23.310;2022-08-21T08:12:34;12.60;;;9.50;;
5379;SDS011;2713;42.680;23.310;2022-08-21T08:15:02;14.00;;;10.20;;
5379;SDS011;2713;42.680;23.310;2022-08-21T08:17:31;14.27;;;10.43;;
5379;SDS011;2713;42.680;23.310;2022-08-21T08:19:58;20.00;;;15.43;;
5379;SDS011;2713;42.680;23.310;2022-08-21T08:22:26;14.30;;;10.50;;
5379;SDS011;2713;42.680;23.310;2022-08-21T08:24:53;17.33;;;12.90;;
5379;SDS011;2713;42.680;23.310;2022-08-21T08:27:22;14.90;;;12.33;;
5379;SDS011;2713;42.680;23.310;2022-08-21T08:29:49;13.90;;;10.87;;
5379;SDS011;2713;42.680;23.310;2022-08-21T08:32:16;14.43;;;11.73;;
5379;SDS011;2713;42.680;23.310;2022-08-21T08:34:44;14.33;;;10.70;;
5379;SDS011;2713;42.680;23.310;2022-08-21T08:37:11;14.00;;;10.60;;
5379;SDS011;2713;42.680;23.310;2022-08-21T08:39:38;11.87;;;9.93;;
5379;SDS011;2713;42.680;23.310;2022-08-21T08:42:06;15.57;;;10.70;;
5379;SDS011;2713;42.680;23.310;2022-08-21T08:44:36;14.93;;;11.07;;
5379;SDS011;2713;42.680;23.310;2022-08-21T08:47:03;15.00;;;10.40;;
5379;SDS011;2713;42.680;23.310;2022-08-21T08:49:33;13.13;;;10.70;;
5379;SDS011;2713;42.680;23.310;2022-08-21T08:52:05;14.10;;;10.20;;
5379;SDS011;2713;42.680;23.310;2022-08-21T08:54:41;10.43;;;9.00;;
5379;SDS011;2713;42.680;23.310;2022-08-21T08:57:14;13.97;;;9.90;;
5379;SDS011;2713;42.680;23.310;2022-08-21T08:59:46;14.87;;;9.60;;
5379;SDS011;2713;42.680;23.310;2022-08-21T09:02:17;15.67;;;10.50;;
5379;SDS011;2713;42.680;23.310;2022-08-21T09:04:45;13.57;;;8.20;;
5379;SDS011;2713;42.680;23.310;2022-08-21T09:07:16;18.73;;;10.17;;
5379;SDS011;2713;42.680;23.310;2022-08-21T09:09:53;13.53;;;9.80;;
5379;SDS011;2713;42.680;23.310;2022-08-21T09:12:30;10.10;;;9.07;;
5379;SDS011;2713;42.680;23.310;2022-08-21T09:15:09;9.20;;;8.30;;
5379;SDS011;2713;42.680;23.310;2022-08-21T09:17:48;14.60;;;10.77;;
5379;SDS011;2713;42.680;23.310;2022-08-21T09:20:28;10.13;;;8.67;;
5379;SDS011;2713;42.680;23.310;2022-08-21T09:23:05;16.40;;;8.63;;
5379;SDS011;2713;42.680;23.310;2022-08-21T09:25:42;10.10;;;8.20;;
5379;SDS011;2713;42.680;23.310;2022-08-21T09:28:12;11.07;;;8.10;;
5379;SDS011;2713;42.680;23.310;2022-08-21T09:30:41;10.07;;;8.87;;
5379;SDS011;2713;42.680;23.310;2022-08-21T09:33:09;12.93;;;9.43;;
5379;SDS011;2713;42.680;23.310;2022-08-21T09:35:47;17.83;;;8.70;;
5379;SDS011;2713;42.680;23.310;2022-08-21T09:38:24;9.63;;;8.40;;
5379;SDS011;2713;42.680;23.310;2022-08-21T09:40:56;10.07;;;8.30;;
5379;SDS011;2713;42.680;23.310;2022-08-21T09:43:25;11.13;;;8.87;;
5379;SDS011;2713;42.680;23.310;2022-08-21T09:46:03;10.50;;;8.37;;
5379;SDS011;2713;42.680;23.310;2022-08-21T09:48:38;12.47;;;9.30;;
5379;SDS011;2713;42.680;23.310;2022-08-21T09:51:08;11.90;;;8.37;;
5379;SDS011;2713;42.680;23.310;2022-08-21T09:53:38;8.23;;;7.30;;
5379;SDS011;2713;42.680;23.310;2022-08-21T09:56:16;9.67;;;7.73;;
5379;SDS011;2713;42.680;23.310;2022-08-21T09:59:12;9.43;;;8.07;;
5379;SDS011;2713;42.680;23.310;2022-08-21T10:01:43;9.63;;;6.57;;
5379;SDS011;2713;42.680;23.310;2022-08-21T10:04:12;11.53;;;7.40;;
5379;SDS011;2713;42.680;23.310;2022-08-21T10:06:39;12.50;;;7.97;;
5379;SDS011;2713;42.680;23.310;2022-08-21T10:09:08;9.53;;;8.00;;
5379;SDS011;2713;42.680;23.310;2022-08-21T10:11:36;10.00;;;8.40;;
5379;SDS011;2713;42.680;23.310;2022-08-21T10:14:07;14.13;;;7.27;;
5379;SDS011;2713;42.680;23.310;2022-08-21T10:16:47;10.00;;;7.87;;
5379;SDS011;2713;42.680;23.310;2022-08-21T10:19:24;9.77;;;7.40;;
5379;SDS011;2713;42.680;23.310;2022-08-21T10:21:59;10.77;;;6.90;;
5379;SDS011;2713;42.680;23.310;2022-08-21T10:24:32;8.30;;;6.97;;
5379;SDS011;2713;42.680;23.310;2022-08-21T10:27:08;10.07;;;7.40;;
5379;SDS011;2713;42.680;23.310;2022-08-21T10:29:46;13.10;;;8.40;;
5379;SDS011;2713;42.680;23.310;2022-08-21T10:32:25;10.63;;;7.53;;
5379;SDS011;2713;42.680;23.310;2022-08-21T10:35:00;8.00;;;7.20;;
5379;SDS011;2713;42.680;23.310;2022-08-21T10:37:37;9.80;;;7.63;;
5379;SDS011;2713;42.680;23.310;2022-08-21T10:40:15;8.00;;;7.20;;
5379;SDS011;2713;42.680;23.310;2022-08-21T10:42:49;8.70;;;7.10;;
5379;SDS011;2713;42.680;23.310;2022-08-21T10:45:30;9.97;;;6.53;;
5379;SDS011;2713;42.680;23.310;2022-08-21T10:48:06;11.90;;;7.67;;
5379;SDS011;2713;42.680;23.310;2022-08-21T10:50:37;10.13;;;7.97;;
5379;SDS011;2713;42.680;23.310;2022-08-21T10:53:11;12.83;;;8.20;;
5379;SDS011;2713;42.680;23.310;2022-08-21T10:55:51;14.13;;;9.43;;
5379;SDS011;2713;42.680;23.310;2022-08-21T10:58:25;8.70;;;7.77;;
5379;SDS011;2713;42.680;23.310;2022-08-21T11:00:55;10.80;;;8.27;;
5379;SDS011;2713;42.680;23.310;2022-08-21T11:03:28;13.27;;;7.77;;
5379;SDS011;2713;42.680;23.310;2022-08-21T11:06:02;7.53;;;6.80;;
5379;SDS011;2713;42.680;23.310;2022-08-21T11:08:36;11.87;;;9.33;;
5379;SDS011;2713;42.680;23.310;2022-08-21T11:11:06;12.87;;;9.63;;
5379;SDS011;2713;42.680;23.310;2022-08-21T11:13:38;11.40;;;9.53;;
5379;SDS011;2713;42.680;23.310;2022-08-21T11:16:10;8.93;;;7.33;;
5379;SDS011;2713;42.680;23.310;2022-08-21T11:18:47;10.10;;;8.00;;
5379;SDS011;2713;42.680;23.310;2022-08-21T11:21:32;11.20;;;9.63;;
5379;SDS011;2713;42.680;23.310;2022-08-21T11:24:10;9.13;;;7.17;;
5379;SDS011;2713;42.680;23.310;2022-08-21T11:26:47;9.87;;;7.57;;
5379;SDS011;2713;42.680;23.310;2022-08-21T11:29:22;11.57;;;7.50;;
5379;SDS011;2713;42.680;23.310;2022-08-21T11:31:56;10.20;;;7.13;;
5379;SDS011;2713;42.680;23.310;2022-08-21T11:34:45;11.10;;;7.93;;
5379;SDS011;2713;42.680;23.310;2022-08-21T11:37:23;8.33;;;7.50;;
5379;SDS011;2713;42.680;23.310;2022-08-21T11:40:09;10.43;;;7.40;;
5379;SDS011;2713;42.680;23.310;2022-08-21T11:42:44;10.63;;;8.77;;
5379;SDS011;2713;42.680;23.310;2022-08-21T11:45:26;7.70;;;7.00;;
5379;SDS011;2713;42.680;23.310;2022-08-21T11:48:00;14.23;;;8.37;;
5379;SDS011;2713;42.680;23.310;2022-08-21T11:50:39;9.97;;;7.37;;
5379;SDS011;2713;42.680;23.310;2022-08-21T11:53:11;9.90;;;7.10;;
5379;SDS011;2713;42.680;23.310;2022-08-21T11:55:45;8.97;;;7.20;;
5379;SDS011;2713;42.680;23.310;2022-08-21T11:58:17;8.90;;;8.00;;
5379;SDS011;2713;42.680;23.310;2022-08-21T12:00:49;13.60;;;8.40;;
5379;SDS011;2713;42.680;23.310;2022-08-21T12:03:22;10.23;;;7.40;;
5379;SDS011;2713;42.680;23.310;2022-08-21T12:05:55;8.70;;;7.60;;
5379;SDS011;2713;42.680;23.310;2022-08-21T12:08:27;12.90;;;8.90;;
5379;SDS011;2713;42.680;23.310;2022-08-21T12:11:00;11.30;;;8.33;;
5379;SDS011;2713;42.680;23.310;2022-08-21T12:13:31;12.50;;;9.80;;
5379;SDS011;2713;42.680;23.310;2022-08-21T12:16:06;14.10;;;9.47;;
5379;SDS011;2713;42.680;23.310;2022-08-21T12:18:34;12.23;;;7.20;;
5379;SDS011;2713;42.680;23.310;2022-08-21T12:21:19;9.23;;;7.07;;
5379;SDS011;2713;42.680;23.310;2022-08-21T12:23:57;10.97;;;7.13;;
5379;SDS011;2713;42.680;23.310;2022-08-21T12:26:28;10.30;;;7.40;;
5379;SDS011;2713;42.680;23.310;2022-08-21T12:29:14;12.33;;;7.40;;
5379;SDS011;2713;42.680;23.310;2022-08-21T12:31:48;10.37;;;8.20;;
5379;SDS011;2713;42.680;23.310;2022-08-21T12:34:17;10.17;;;8.00;;
5379;SDS011;2713;42.680;23.310;2022-08-21T12:36:49;12.93;;;9.43;;
5379;SDS011;2713;42.680;23.310;2022-08-21T12:39:22;8.80;;;7.90;;
5379;SDS011;2713;42.680;23.310;2022-08-21T12:41:53;9.00;;;7.30;;
5379;SDS011;2713;42.680;23.310;2022-08-21T12:44:26;11.30;;;7.50;;
5379;SDS011;2713;42.680;23.310;2022-08-21T12:47:02;7.67;;;6.90;;
5379;SDS011;2713;42.680;23.310;2022-08-21T12:49:32;9.13;;;8.23;;
5379;SDS011;2713;42.680;23.310;2022-08-21T12:52:05;9.60;;;7.70;;
5379;SDS011;2713;42.680;23.310;2022-08-21T12:54:38;11.43;;;8.23;;
5379;SDS011;2713;42.680;23.310;2022-08-21T12:57:08;11.23;;;9.07;;
5379;SDS011;2713;42.680;23.310;2022-08-21T12:59:43;10.80;;;7.90;;
5379;SDS011;2713;42.680;23.310;2022-08-21T13:02:14;9.63;;;6.57;;
5379;SDS011;2713;42.680;23.310;2022-08-21T13:04:45;12.00;;;7.03;;
5379;SDS011;2713;42.680;23.310;2022-08-21T13:07:16;8.67;;;7.37;;
5379;SDS011;2713;42.680;23.310;2022-08-21T13:09:52;12.17;;;8.03;;
5379;SDS011;2713;42.680;23.310;2022-08-21T13:12:21;8.97;;;6.77;;
5379;SDS011;2713;42.680;23.310;2022-08-21T13:14:50;8.20;;;7.37;;
5379;SDS011;2713;42.680;23.310;2022-08-21T13:17:22;7.90;;;6.93;;
5379;SDS011;2713;42.680;23.310;2022-08-21T13:19:55;10.60;;;7.50;;
5379;SDS011;2713;42.680;23.310;2022-08-21T13:22:25;10.30;;;7.97;;
5379;SDS011;2713;42.680;23.310;2022-08-21T13:24:53;9.70;;;6.73;;
5379;SDS011;2713;42.680;23.310;2022-08-21T13:27:21;15.77;;;9.93;;
5379;SDS011;2713;42.680;23.310;2022-08-21T13:30:00;11.33;;;6.63;;
5379;SDS011;2713;42.680;23.310;2022-08-21T13:32:33;10.70;;;7.13;;
5379;SDS011;2713;42.680;23.310;2022-08-21T13:35:09;9.83;;;8.13;;
5379;SDS011;2713;42.680;23.310;2022-08-21T13:37:40;10.67;;;6.77;;
5379;SDS011;2713;42.680;23.310;2022-08-21T13:40:10;8.07;;;6.83;;
5379;SDS011;2713;42.680;23.310;2022-08-21T13:42:41;8.03;;;7.27;;
5379;SDS011;2713;42.680;23.310;2022-08-21T13:45:12;9.17;;;7.23;;
5379;SDS011;2713;42.680;23.310;2022-08-21T13:47:41;7.03;;;6.33;;
5379;SDS011;2713;42.680;23.310;2022-08-21T13:50:13;10.03;;;7.37;;
5379;SDS011;2713;42.680;23.310;2022-08-21T13:52:56;11.53;;;7.30;;
5379;SDS011;2713;42.680;23.310;2022-08-21T13:55:25;10.23;;;6.60;;
5379;SDS011;2713;42.680;23.310;2022-08-21T13:58:02;8.27;;;6.70;;
5379;SDS011;2713;42.680;23.310;2022-08-21T14:00:31;8.90;;;7.83;;
5379;SDS011;2713;42.680;23.310;2022-08-21T14:03:02;10.83;;;8.20;;
5379;SDS011;2713;42.680;23.310;2022-08-21T14:05:33;8.57;;;6.93;;
5379;SDS011;2713;42.680;23.310;2022-08-21T14:08:04;8.40;;;7.20;;
5379;SDS011;2713;42.680;23.310;2022-08-21T14:10:35;8.23;;;6.47;;
5379;SDS011;2713;42.680;23.310;2022-08-21T14:13:07;7.97;;;6.67;;
5379;SDS011;2713;42.680;23.310;2022-08-21T14:15:34;9.50;;;6.73;;
5379;SDS011;2713;42.680;23.310;2022-08-21T14:18:09;12.30;;;8.33;;
5379;SDS011;2713;42.680;23.310;2022-08-21T14:20:40;11.03;;;8.17;;
5379;SDS011;2713;42.680;23.310;2022-08-21T14:23:09;12.80;;;7.60;;
5379;SDS011;2713;42.680;23.310;2022-08-21T14:25:38;8.70;;;7.80;;
5379;SDS011;2713;42.680;23.310;2022-08-21T14:28:11;7.90;;;7.10;;
5379;SDS011;2713;42.680;23.310;2022-08-21T14:30:45;11.10;;;6.90;;
5379;SDS011;2713;42.680;23.310;2022-08-21T14:33:13;10.00;;;7.40;;
5379;SDS011;2713;42.680;23.310;2022-08-21T14:35:53;12.23;;;8.07;;
5379;SDS011;2713;42.680;23.310;2022-08-21T14:38:23;11.10;;;8.63;;
5379;SDS011;2713;42.680;23.310;2022-08-21T14:40:52;8.43;;;6.40;;
5379;SDS011;2713;42.680;23.310;2022-08-21T14:43:21;9.60;;;7.10;;
5379;SDS011;2713;42.680;23.310;2022-08-21T14:45:48;7.40;;;6.47;;
5379;SDS011;2713;42.680;23.310;2022-08-21T14:48:15;7.83;;;6.30;;
5379;SDS011;2713;42.680;23.310;2022-08-21T14:50:41;8.87;;;7.07;;
5379;SDS011;2713;42.680;23.310;2022-08-21T14:53:09;11.20;;;7.20;;
5379;SDS011;2713;42.680;23.310;2022-08-21T14:55:38;7.00;;;6.30;;
5379;SDS011;2713;42.680;23.310;2022-08-21T14:58:23;7.63;;;6.90;;
5379;SDS011;2713;42.680;23.310;2022-08-21T15:00:51;7.67;;;7.00;;
5379;SDS011;2713;42.680;23.310;2022-08-21T15:03:20;9.70;;;7.87;;
5379;SDS011;2713;42.680;23.310;2022-08-21T15:05:47;8.07;;;7.37;;